sensor_id;sensor_type;location;lat;lon;timestamp;P1;durP1;ratioP1;P2;durP2;ratioP2
15216;SDS011;7711;46.634;14.318;2023-09-30T00:01:31;17.23;;;15.43;;
15216;SDS011;7711;46.634;14.318;2023-09-30T00:03:59;21.23;;;15.60;;
15216;SDS011;7711;46.634;14.318;2023-09-30T00:06:28;17.07;;;15.10;;
15216;SDS011;7711;46.634;14.318;2023-09-30T00:08:55;20.97;;;15.67;;
15216;SDS011;7711;46.634;14.318;2023-09-30T00:11:22;17.40;;;14.63;;
15216;SDS011;7711;46.634;14.318;2023-09-30T00:13:49;19.40;;;15.40;;
15216;SDS011;7711;46.634;14.318;2023-09-30T00:16:17;16.00;;;14.33;;
15216;SDS011;7711;46.634;14.318;2023-09-30T00:18:45;19.23;;;15.73;;
15216;SDS011;7711;46.634;14.318;2023-09-30T00:21:12;18.83;;;15.73;;
15216;SDS011;7711;46.634;14.318;2023-09-30T00:23:40;23.50;;;15.57;;
15216;SDS011;7711;46.634;14.318;2023-09-30T00:26:07;18.00;;;15.00;;
15216;SDS011;7711;46.634;14.318;2023-09-30T00:28:34;17.10;;;15.17;;
15216;SDS011;7711;46.634;14.318;2023-09-30T00:31:05;17.97;;;14.10;;
15216;SDS011;7711;46.634;14.318;2023-09-30T00:33:35;16.43;;;14.27;;
15216;SDS011;7711;46.634;14.318;2023-09-30T00:36:07;19.17;;;15.00;;
15216;SDS011;7711;46.634;14.318;2023-09-30T00:38:34;17.17;;;14.23;;
15216;SDS011;7711;46.634;14.318;2023-09-30T00:41:02;19.97;;;13.73;;
15216;SDS011;7711;46.634;14.318;2023-09-30T00:43:29;17.63;;;14.40;;
15216;SDS011;7711;46.634;14.318;2023-09-30T00:46:01;21.23;;;16.20;;
15216;SDS011;7711;46.634;14.318;2023-09-30T00:48:32;19.47;;;15.47;;
15216;SDS011;7711;46.634;14.318;2023-09-30T00:51:00;18.70;;;16.23;;
15216;SDS011;7711;46.634;14.318;2023-09-30T00:53:29;16.43;;;14.70;;
15216;SDS011;7711;46.634;14.318;2023-09-30T00:55:57;20.63;;;14.87;;
15216;SDS011;7711;46.634;14.318;2023-09-30T00:58:26;18.83;;;15.30;;
15216;SDS011;7711;46.634;14.318;2023-09-30T01:00:56;17.30;;;15.37;;
15216;SDS011;7711;46.634;14.318;2023-09-30T01:03:25;17.13;;;15.30;;
15216;SDS011;7711;46.634;14.318;2023-09-30T01:05:52;18.77;;;14.97;;
15216;SDS011;7711;46.634;14.318;2023-09-30T01:08:20;16.73;;;14.93;;
15216;SDS011;7711;46.634;14.318;2023-09-30T01:10:49;19.97;;;14.47;;
15216;SDS011;7711;46.634;14.318;2023-09-30T01:13:17;16.67;;;14.87;;
15216;SDS011;7711;46.634;14.318;2023-09-30T01:15:44;18.03;;;13.87;;
15216;SDS011;7711;46.634;14.318;2023-09-30T01:18:13;18.60;;;14.10;;
15216;SDS011;7711;46.634;14.318;2023-09-30T01:20:40;16.40;;;14.73;;
15216;SDS011;7711;46.634;14.318;2023-09-30T01:23:09;18.17;;;14.40;;
15216;SDS011;7711;46.634;14.318;2023-09-30T01:25:38;17.80;;;14.60;;
15216;SDS011;7711;46.634;14.318;2023-09-30T01:28:07;16.93;;;14.67;;
15216;SDS011;7711;46.634;14.318;2023-09-30T01:30:35;19.07;;;14.70;;
15216;SDS011;7711;46.634;14.318;2023-09-30T01:33:03;16.03;;;13.53;;
15216;SDS011;7711;46.634;14.318;2023-09-30T01:35:32;15.63;;;13.80;;
15216;SDS011;7711;46.634;14.318;2023-09-30T01:38:00;16.88;;;13.95;;
15216;SDS011;7711;46.634;14.318;2023-09-30T01:40:28;17.07;;;13.70;;
15216;SDS011;7711;46.634;14.318;2023-09-30T01:42:55;15.13;;;13.53;;
15216;SDS011;7711;46.634;14.318;2023-09-30T01:45:23;17.93;;;13.83;;
15216;SDS011;7711;46.634;14.318;2023-09-30T01:47:50;15.80;;;13.33;;
15216;SDS011;7711;46.634;14.318;2023-09-30T01:50:17;16.20;;;13.53;;
15216;SDS011;7711;46.634;14.318;2023-09-30T01:52:45;17.37;;;13.57;;
15216;SDS011;7711;46.634;14.318;2023-09-30T01:55:12;14.98;;;12.23;;
15216;SDS011;7711;46.634;14.318;2023-09-30T01:57:41;17.37;;;13.47;;
15216;SDS011;7711;46.634;14.318;2023-09-30T02:00:08;14.35;;;12.15;;
15216;SDS011;7711;46.634;14.318;2023-09-30T02:02:37;16.03;;;12.33;;
15216;SDS011;7711;46.634;14.318;2023-09-30T02:05:05;15.53;;;12.40;;
15216;SDS011;7711;46.634;14.318;2023-09-30T02:07:33;15.50;;;13.80;;
15216;SDS011;7711;46.634;14.318;2023-09-30T02:10:00;16.57;;;13.93;;
15216;SDS011;7711;46.634;14.318;2023-09-30T02:12:28;17.47;;;12.80;;
15216;SDS011;7711;46.634;14.318;2023-09-30T02:14:57;14.50;;;12.63;;
15216;SDS011;7711;46.634;14.318;2023-09-30T02:17:25;16.37;;;12.47;;
15216;SDS011;7711;46.634;14.318;2023-09-30T02:19:52;16.97;;;13.20;;
15216;SDS011;7711;46.634;14.318;2023-09-30T02:22:20;14.73;;;12.40;;
15216;SDS011;7711;46.634;14.318;2023-09-30T02:24:48;15.17;;;12.53;;
15216;SDS011;7711;46.634;14.318;2023-09-30T02:27:16;16.80;;;13.00;;
15216;SDS011;7711;46.634;14.318;2023-09-30T02:29:43;15.53;;;12.93;;
15216;SDS011;7711;46.634;14.318;2023-09-30T02:32:11;16.70;;;12.77;;
15216;SDS011;7711;46.634;14.318;2023-09-30T02:34:39;15.60;;;13.37;;
15216;SDS011;7711;46.634;14.318;2023-09-30T02:37:07;16.90;;;13.57;;
15216;SDS011;7711;46.634;14.318;2023-09-30T02:39:35;14.63;;;12.77;;
15216;SDS011;7711;46.634;14.318;2023-09-30T02:42:03;15.20;;;13.60;;
15216;SDS011;7711;46.634;14.318;2023-09-30T02:44:30;15.33;;;13.73;;
15216;SDS011;7711;46.634;14.318;2023-09-30T02:46:58;15.20;;;13.57;;
15216;SDS011;7711;46.634;14.318;2023-09-30T02:49:26;17.33;;;13.00;;
15216;SDS011;7711;46.634;14.318;2023-09-30T02:51:53;14.63;;;13.07;;
15216;SDS011;7711;46.634;14.318;2023-09-30T02:54:20;14.00;;;12.50;;
15216;SDS011;7711;46.634;14.318;2023-09-30T02:56:47;17.07;;;13.73;;
15216;SDS011;7711;46.634;14.318;2023-09-30T02:59:14;15.00;;;12.43;;
15216;SDS011;7711;46.634;14.318;2023-09-30T03:01:43;16.67;;;13.10;;
15216;SDS011;7711;46.634;14.318;2023-09-30T03:04:12;15.00;;;11.83;;
15216;SDS011;7711;46.634;14.318;2023-09-30T03:06:40;16.37;;;12.80;;
15216;SDS011;7711;46.634;14.318;2023-09-30T03:09:09;14.57;;;13.03;;
15216;SDS011;7711;46.634;14.318;2023-09-30T03:11:40;14.00;;;12.03;;
15216;SDS011;7711;46.634;14.318;2023-09-30T03:14:09;15.40;;;12.63;;
15216;SDS011;7711;46.634;14.318;2023-09-30T03:16:37;15.73;;;13.10;;
15216;SDS011;7711;46.634;14.318;2023-09-30T03:19:06;16.17;;;12.60;;
15216;SDS011;7711;46.634;14.318;2023-09-30T03:21:33;16.17;;;12.20;;
15216;SDS011;7711;46.634;14.318;2023-09-30T03:24:03;15.83;;;11.47;;
15216;SDS011;7711;46.634;14.318;2023-09-30T03:26:33;13.53;;;11.90;;
15216;SDS011;7711;46.634;14.318;2023-09-30T03:29:00;15.67;;;11.97;;
15216;SDS011;7711;46.634;14.318;2023-09-30T03:31:28;12.37;;;11.07;;
15216;SDS011;7711;46.634;14.318;2023-09-30T03:33:55;15.60;;;11.70;;
15216;SDS011;7711;46.634;14.318;2023-09-30T03:36:23;15.77;;;11.53;;
15216;SDS011;7711;46.634;14.318;2023-09-30T03:38:50;15.57;;;11.50;;
15216;SDS011;7711;46.634;14.318;2023-09-30T03:41:21;14.60;;;12.33;;
15216;SDS011;7711;46.634;14.318;2023-09-30T03:43:48;12.63;;;11.33;;
15216;SDS011;7711;46.634;14.318;2023-09-30T03:46:15;17.27;;;12.53;;
15216;SDS011;7711;46.634;14.318;2023-09-30T03:48:43;12.97;;;11.67;;
15216;SDS011;7711;46.634;14.318;2023-09-30T03:51:10;16.80;;;12.33;;
15216;SDS011;7711;46.634;14.318;2023-09-30T03:53:39;14.87;;;11.80;;
15216;SDS011;7711;46.634;14.318;2023-09-30T03:56:06;14.77;;;12.80;;
15216;SDS011;7711;46.634;14.318;2023-09-30T03:58:37;15.83;;;12.30;;
15216;SDS011;7711;46.634;14.318;2023-09-30T04:01:04;14.43;;;12.63;;
15216;SDS011;7711;46.634;14.318;2023-09-30T04:03:31;14.43;;;12.90;;
15216;SDS011;7711;46.634;14.318;2023-09-30T04:06:00;15.93;;;13.40;;
15216;SDS011;7711;46.634;14.318;2023-09-30T04:08:29;14.00;;;11.87;;
15216;SDS011;7711;46.634;14.318;2023-09-30T04:10:58;14.77;;;11.93;;
15216;SDS011;7711;46.634;14.318;2023-09-30T04:13:26;18.53;;;12.93;;
15216;SDS011;7711;46.634;14.318;2023-09-30T04:15:55;15.10;;;13.40;;
15216;SDS011;7711;46.634;14.318;2023-09-30T04:18:24;16.20;;;12.67;;
15216;SDS011;7711;46.634;14.318;2023-09-30T04:20:51;15.07;;;12.75;;
15216;SDS011;7711;46.634;14.318;2023-09-30T04:23:18;17.00;;;12.90;;
15216;SDS011;7711;46.634;14.318;2023-09-30T04:25:46;14.73;;;12.80;;
15216;SDS011;7711;46.634;14.318;2023-09-30T04:28:14;14.50;;;12.73;;
15216;SDS011;7711;46.634;14.318;2023-09-30T04:30:46;18.43;;;12.90;;
15216;SDS011;7711;46.634;14.318;2023-09-30T04:33:16;18.30;;;13.67;;
15216;SDS011;7711;46.634;14.318;2023-09-30T04:35:45;14.02;;;12.52;;
15216;SDS011;7711;46.634;14.318;2023-09-30T04:38:12;13.57;;;12.10;;
15216;SDS011;7711;46.634;14.318;2023-09-30T04:40:40;15.07;;;12.47;;
15216;SDS011;7711;46.634;14.318;2023-09-30T04:43:09;14.37;;;12.83;;
15216;SDS011;7711;46.634;14.318;2023-09-30T04:45:36;15.02;;;12.70;;
15216;SDS011;7711;46.634;14.318;2023-09-30T04:48:04;17.08;;;12.73;;
15216;SDS011;7711;46.634;14.318;2023-09-30T04:50:32;19.33;;;12.45;;
15216;SDS011;7711;46.634;14.318;2023-09-30T04:52:59;13.43;;;11.85;;
15216;SDS011;7711;46.634;14.318;2023-09-30T04:55:27;15.67;;;12.17;;
15216;SDS011;7711;46.634;14.318;2023-09-30T04:57:54;18.63;;;12.20;;
15216;SDS011;7711;46.634;14.318;2023-09-30T05:00:21;14.77;;;11.63;;
15216;SDS011;7711;46.634;14.318;2023-09-30T05:02:50;17.80;;;12.77;;
15216;SDS011;7711;46.634;14.318;2023-09-30T05:05:19;15.63;;;12.57;;
15216;SDS011;7711;46.634;14.318;2023-09-30T05:07:47;15.90;;;12.38;;
15216;SDS011;7711;46.634;14.318;2023-09-30T05:10:14;19.92;;;13.90;;
15216;SDS011;7711;46.634;14.318;2023-09-30T05:12:42;18.47;;;13.37;;
15216;SDS011;7711;46.634;14.318;2023-09-30T05:15:11;13.45;;;12.02;;
15216;SDS011;7711;46.634;14.318;2023-09-30T05:17:40;14.13;;;12.47;;
15216;SDS011;7711;46.634;14.318;2023-09-30T05:20:08;14.87;;;12.30;;
15216;SDS011;7711;46.634;14.318;2023-09-30T05:22:37;15.53;;;13.00;;
15216;SDS011;7711;46.634;14.318;2023-09-30T05:25:07;18.47;;;13.67;;
15216;SDS011;7711;46.634;14.318;2023-09-30T05:27:35;16.60;;;12.50;;
15216;SDS011;7711;46.634;14.318;2023-09-30T05:30:03;14.38;;;12.80;;
15216;SDS011;7711;46.634;14.318;2023-09-30T05:32:31;14.82;;;12.73;;
15216;SDS011;7711;46.634;14.318;2023-09-30T05:34:59;18.25;;;13.25;;
15216;SDS011;7711;46.634;14.318;2023-09-30T05:37:28;15.00;;;13.00;;
15216;SDS011;7711;46.634;14.318;2023-09-30T05:39:55;16.67;;;13.65;;
15216;SDS011;7711;46.634;14.318;2023-09-30T05:42:24;17.08;;;13.45;;
15216;SDS011;7711;46.634;14.318;2023-09-30T05:44:51;15.23;;;11.83;;
15216;SDS011;7711;46.634;14.318;2023-09-30T05:47:18;18.42;;;13.30;;
15216;SDS011;7711;46.634;14.318;2023-09-30T05:49:46;15.43;;;12.43;;
15216;SDS011;7711;46.634;14.318;2023-09-30T05:52:13;15.98;;;12.65;;
15216;SDS011;7711;46.634;14.318;2023-09-30T05:54:40;15.40;;;11.93;;
15216;SDS011;7711;46.634;14.318;2023-09-30T05:57:08;12.85;;;11.45;;
15216;SDS011;7711;46.634;14.318;2023-09-30T05:59:36;15.07;;;12.32;;
15216;SDS011;7711;46.634;14.318;2023-09-30T06:02:03;14.80;;;11.63;;
15216;SDS011;7711;46.634;14.318;2023-09-30T06:04:31;14.27;;;11.45;;
15216;SDS011;7711;46.634;14.318;2023-09-30T06:06:58;12.82;;;10.82;;
15216;SDS011;7711;46.634;14.318;2023-09-30T06:09:25;14.73;;;11.48;;
15216;SDS011;7711;46.634;14.318;2023-09-30T06:11:54;14.43;;;11.27;;
15216;SDS011;7711;46.634;14.318;2023-09-30T06:14:21;13.73;;;11.30;;
15216;SDS011;7711;46.634;14.318;2023-09-30T06:16:53;13.65;;;11.55;;
15216;SDS011;7711;46.634;14.318;2023-09-30T06:19:20;13.77;;;11.05;;
15216;SDS011;7711;46.634;14.318;2023-09-30T06:21:48;16.75;;;12.50;;
15216;SDS011;7711;46.634;14.318;2023-09-30T06:24:16;14.10;;;11.27;;
15216;SDS011;7711;46.634;14.318;2023-09-30T06:26:45;13.95;;;12.10;;
15216;SDS011;7711;46.634;14.318;2023-09-30T06:29:13;14.13;;;12.00;;
15216;SDS011;7711;46.634;14.318;2023-09-30T06:31:41;13.18;;;11.10;;
15216;SDS011;7711;46.634;14.318;2023-09-30T06:34:10;13.00;;;10.75;;
15216;SDS011;7711;46.634;14.318;2023-09-30T06:36:38;12.23;;;10.55;;
15216;SDS011;7711;46.634;14.318;2023-09-30T06:39:05;13.23;;;11.77;;
15216;SDS011;7711;46.634;14.318;2023-09-30T06:41:33;15.73;;;11.77;;
15216;SDS011;7711;46.634;14.318;2023-09-30T06:44:01;14.13;;;11.15;;
15216;SDS011;7711;46.634;14.318;2023-09-30T06:46:29;15.75;;;11.75;;
15216;SDS011;7711;46.634;14.318;2023-09-30T06:48:56;13.02;;;11.63;;
15216;SDS011;7711;46.634;14.318;2023-09-30T06:51:25;12.70;;;11.40;;
15216;SDS011;7711;46.634;14.318;2023-09-30T06:53:52;16.48;;;11.85;;
15216;SDS011;7711;46.634;14.318;2023-09-30T06:56:20;14.48;;;11.60;;
15216;SDS011;7711;46.634;14.318;2023-09-30T06:58:47;16.00;;;11.80;;
15216;SDS011;7711;46.634;14.318;2023-09-30T07:01:15;13.43;;;12.00;;
15216;SDS011;7711;46.634;14.318;2023-09-30T07:03:43;13.82;;;12.07;;
15216;SDS011;7711;46.634;14.318;2023-09-30T07:06:10;13.88;;;11.88;;
15216;SDS011;7711;46.634;14.318;2023-09-30T07:08:39;14.55;;;11.32;;
15216;SDS011;7711;46.634;14.318;2023-09-30T07:11:07;14.30;;;11.63;;
15216;SDS011;7711;46.634;14.318;2023-09-30T07:13:36;14.05;;;12.55;;
15216;SDS011;7711;46.634;14.318;2023-09-30T07:16:03;14.40;;;11.20;;
15216;SDS011;7711;46.634;14.318;2023-09-30T07:18:31;13.07;;;11.45;;
15216;SDS011;7711;46.634;14.318;2023-09-30T07:20:58;13.18;;;11.32;;
15216;SDS011;7711;46.634;14.318;2023-09-30T07:23:25;20.23;;;12.20;;
15216;SDS011;7711;46.634;14.318;2023-09-30T07:25:57;13.23;;;11.18;;
15216;SDS011;7711;46.634;14.318;2023-09-30T07:28:24;13.65;;;11.32;;
15216;SDS011;7711;46.634;14.318;2023-09-30T07:30:52;14.13;;;10.73;;
15216;SDS011;7711;46.634;14.318;2023-09-30T07:33:20;13.82;;;12.00;;
15216;SDS011;7711;46.634;14.318;2023-09-30T07:35:48;13.65;;;11.98;;
15216;SDS011;7711;46.634;14.318;2023-09-30T07:38:15;13.77;;;10.80;;
15216;SDS011;7711;46.634;14.318;2023-09-30T07:40:42;13.13;;;11.23;;
15216;SDS011;7711;46.634;14.318;2023-09-30T07:43:11;13.80;;;11.80;;
15216;SDS011;7711;46.634;14.318;2023-09-30T07:45:39;13.93;;;11.73;;
15216;SDS011;7711;46.634;14.318;2023-09-30T07:48:07;13.00;;;11.55;;
15216;SDS011;7711;46.634;14.318;2023-09-30T07:50:35;12.30;;;11.07;;
15216;SDS011;7711;46.634;14.318;2023-09-30T07:53:02;13.20;;;10.95;;
15216;SDS011;7711;46.634;14.318;2023-09-30T07:55:29;16.38;;;11.05;;
15216;SDS011;7711;46.634;14.318;2023-09-30T07:57:57;12.82;;;11.27;;
15216;SDS011;7711;46.634;14.318;2023-09-30T08:00:26;12.98;;;11.50;;
15216;SDS011;7711;46.634;14.318;2023-09-30T08:02:54;14.65;;;12.57;;
15216;SDS011;7711;46.634;14.318;2023-09-30T08:05:21;16.27;;;11.98;;
15216;SDS011;7711;46.634;14.318;2023-09-30T08:07:48;15.98;;;11.50;;
15216;SDS011;7711;46.634;14.318;2023-09-30T08:10:15;16.10;;;12.13;;
15216;SDS011;7711;46.634;14.318;2023-09-30T08:12:43;13.27;;;10.95;;
15216;SDS011;7711;46.634;14.318;2023-09-30T08:15:13;12.75;;;11.27;;
15216;SDS011;7711;46.634;14.318;2023-09-30T08:17:42;13.35;;;11.00;;
15216;SDS011;7711;46.634;14.318;2023-09-30T08:20:09;12.65;;;11.05;;
15216;SDS011;7711;46.634;14.318;2023-09-30T08:22:39;11.13;;;10.02;;
15216;SDS011;7711;46.634;14.318;2023-09-30T08:25:06;12.82;;;10.57;;
15216;SDS011;7711;46.634;14.318;2023-09-30T08:27:36;14.82;;;10.60;;
15216;SDS011;7711;46.634;14.318;2023-09-30T08:30:04;13.32;;;11.15;;
15216;SDS011;7711;46.634;14.318;2023-09-30T08:32:32;12.52;;;10.20;;
15216;SDS011;7711;46.634;14.318;2023-09-30T08:35:02;14.88;;;11.20;;
15216;SDS011;7711;46.634;14.318;2023-09-30T08:37:29;15.73;;;12.00;;
15216;SDS011;7711;46.634;14.318;2023-09-30T08:39:57;12.60;;;10.90;;
15216;SDS011;7711;46.634;14.318;2023-09-30T08:42:25;13.75;;;11.05;;
15216;SDS011;7711;46.634;14.318;2023-09-30T08:44:57;14.85;;;11.23;;
15216;SDS011;7711;46.634;14.318;2023-09-30T08:47:26;11.68;;;10.48;;
15216;SDS011;7711;46.634;14.318;2023-09-30T08:49:54;11.70;;;10.05;;
15216;SDS011;7711;46.634;14.318;2023-09-30T08:52:24;12.30;;;10.23;;
15216;SDS011;7711;46.634;14.318;2023-09-30T08:54:53;12.50;;;10.55;;
15216;SDS011;7711;46.634;14.318;2023-09-30T08:57:20;12.13;;;10.80;;
15216;SDS011;7711;46.634;14.318;2023-09-30T08:59:47;12.25;;;10.13;;
15216;SDS011;7711;46.634;14.318;2023-09-30T09:02:16;12.15;;;10.73;;
15216;SDS011;7711;46.634;14.318;2023-09-30T09:04:44;13.30;;;10.48;;
15216;SDS011;7711;46.634;14.318;2023-09-30T09:07:11;13.27;;;9.30;;
15216;SDS011;7711;46.634;14.318;2023-09-30T09:09:40;11.35;;;10.15;;
15216;SDS011;7711;46.634;14.318;2023-09-30T09:12:18;14.45;;;10.55;;
15216;SDS011;7711;46.634;14.318;2023-09-30T09:14:46;13.35;;;10.13;;
15216;SDS011;7711;46.634;14.318;2023-09-30T09:17:13;11.25;;;10.05;;
15216;SDS011;7711;46.634;14.318;2023-09-30T09:19:41;12.10;;;10.40;;
15216;SDS011;7711;46.634;14.318;2023-09-30T09:22:08;14.60;;;10.48;;
15216;SDS011;7711;46.634;14.318;2023-09-30T09:24:36;15.00;;;10.80;;
15216;SDS011;7711;46.634;14.318;2023-09-30T09:27:06;15.38;;;10.40;;
15216;SDS011;7711;46.634;14.318;2023-09-30T09:29:34;11.27;;;10.18;;
15216;SDS011;7711;46.634;14.318;2023-09-30T09:32:08;15.30;;;10.27;;
15216;SDS011;7711;46.634;14.318;2023-09-30T09:34:36;11.80;;;10.55;;
15216;SDS011;7711;46.634;14.318;2023-09-30T09:37:14;10.95;;;9.85;;
15216;SDS011;7711;46.634;14.318;2023-09-30T09:39:51;11.30;;;10.10;;
15216;SDS011;7711;46.634;14.318;2023-09-30T09:42:25;12.05;;;10.40;;
15216;SDS011;7711;46.634;14.318;2023-09-30T09:44:54;12.57;;;9.60;;
15216;SDS011;7711;46.634;14.318;2023-09-30T09:47:23;15.27;;;10.35;;
15216;SDS011;7711;46.634;14.318;2023-09-30T09:49:51;14.30;;;9.75;;
15216;SDS011;7711;46.634;14.318;2023-09-30T09:52:20;12.70;;;9.57;;
15216;SDS011;7711;46.634;14.318;2023-09-30T09:54:49;10.27;;;9.18;;
15216;SDS011;7711;46.634;14.318;2023-09-30T09:57:16;9.63;;;8.73;;
15216;SDS011;7711;46.634;14.318;2023-09-30T09:59:46;10.70;;;9.65;;
15216;SDS011;7711;46.634;14.318;2023-09-30T10:02:14;10.85;;;9.23;;
15216;SDS011;7711;46.634;14.318;2023-09-30T10:04:43;11.45;;;9.30;;
15216;SDS011;7711;46.634;14.318;2023-09-30T10:07:11;11.45;;;9.48;;
15216;SDS011;7711;46.634;14.318;2023-09-30T10:09:44;13.63;;;9.85;;
15216;SDS011;7711;46.634;14.318;2023-09-30T10:12:16;15.20;;;9.40;;
15216;SDS011;7711;46.634;14.318;2023-09-30T10:14:45;12.10;;;9.98;;
15216;SDS011;7711;46.634;14.318;2023-09-30T10:17:12;11.90;;;9.40;;
15216;SDS011;7711;46.634;14.318;2023-09-30T10:22:32;12.68;;;9.95;;
15216;SDS011;7711;46.634;14.318;2023-09-30T10:25:00;11.50;;;10.10;;
15216;SDS011;7711;46.634;14.318;2023-09-30T10:27:36;12.35;;;9.70;;
15216;SDS011;7711;46.634;14.318;2023-09-30T10:30:10;10.80;;;9.75;;
15216;SDS011;7711;46.634;14.318;2023-09-30T10:35:45;10.23;;;9.23;;
15216;SDS011;7711;46.634;14.318;2023-09-30T10:41:03;10.93;;;9.82;;
15216;SDS011;7711;46.634;14.318;2023-09-30T10:43:30;14.55;;;10.27;;
15216;SDS011;7711;46.634;14.318;2023-09-30T10:45:59;10.70;;;9.70;;
15216;SDS011;7711;46.634;14.318;2023-09-30T10:48:36;11.30;;;10.07;;
15216;SDS011;7711;46.634;14.318;2023-09-30T10:51:10;11.73;;;9.68;;
15216;SDS011;7711;46.634;14.318;2023-09-30T10:53:41;10.32;;;9.18;;
15216;SDS011;7711;46.634;14.318;2023-09-30T10:56:10;11.93;;;10.75;;
15216;SDS011;7711;46.634;14.318;2023-09-30T10:58:41;14.55;;;10.38;;
15216;SDS011;7711;46.634;14.318;2023-09-30T11:01:10;11.77;;;10.32;;
15216;SDS011;7711;46.634;14.318;2023-09-30T11:03:39;12.60;;;10.23;;
15216;SDS011;7711;46.634;14.318;2023-09-30T11:06:06;10.65;;;9.55;;
15216;SDS011;7711;46.634;14.318;2023-09-30T11:08:34;11.52;;;9.70;;
15216;SDS011;7711;46.634;14.318;2023-09-30T11:11:03;10.55;;;9.60;;
15216;SDS011;7711;46.634;14.318;2023-09-30T11:13:33;10.93;;;9.82;;
15216;SDS011;7711;46.634;14.318;2023-09-30T11:16:01;10.27;;;9.23;;
15216;SDS011;7711;46.634;14.318;2023-09-30T11:18:31;11.60;;;9.57;;
15216;SDS011;7711;46.634;14.318;2023-09-30T11:21:05;10.07;;;9.07;;
15216;SDS011;7711;46.634;14.318;2023-09-30T11:23:33;13.43;;;9.60;;
15216;SDS011;7711;46.634;14.318;2023-09-30T11:26:02;11.45;;;10.32;;
15216;SDS011;7711;46.634;14.318;2023-09-30T11:28:39;10.93;;;9.70;;
15216;SDS011;7711;46.634;14.318;2023-09-30T11:31:08;12.35;;;9.85;;
15216;SDS011;7711;46.634;14.318;2023-09-30T11:33:51;12.68;;;10.57;;
15216;SDS011;7711;46.634;14.318;2023-09-30T11:36:21;11.30;;;9.70;;
15216;SDS011;7711;46.634;14.318;2023-09-30T11:38:50;9.95;;;8.98;;
15216;SDS011;7711;46.634;14.318;2023-09-30T11:41:18;10.57;;;9.55;;
15216;SDS011;7711;46.634;14.318;2023-09-30T11:44:00;11.07;;;9.55;;
15216;SDS011;7711;46.634;14.318;2023-09-30T11:46:30;14.80;;;10.02;;
15216;SDS011;7711;46.634;14.318;2023-09-30T11:49:00;13.57;;;10.07;;
15216;SDS011;7711;46.634;14.318;2023-09-30T11:51:30;15.77;;;9.68;;
15216;SDS011;7711;46.634;14.318;2023-09-30T11:54:09;10.48;;;9.13;;
15216;SDS011;7711;46.634;14.318;2023-09-30T11:56:36;13.48;;;9.05;;
15216;SDS011;7711;46.634;14.318;2023-09-30T11:59:04;12.63;;;8.45;;
15216;SDS011;7711;46.634;14.318;2023-09-30T12:01:31;11.02;;;9.15;;
15216;SDS011;7711;46.634;14.318;2023-09-30T12:04:00;10.80;;;8.35;;
15216;SDS011;7711;46.634;14.318;2023-09-30T12:06:27;9.82;;;8.90;;
15216;SDS011;7711;46.634;14.318;2023-09-30T12:08:54;9.23;;;8.27;;
15216;SDS011;7711;46.634;14.318;2023-09-30T12:11:22;12.00;;;8.95;;
15216;SDS011;7711;46.634;14.318;2023-09-30T12:13:50;13.52;;;9.20;;
15216;SDS011;7711;46.634;14.318;2023-09-30T12:16:18;13.48;;;9.45;;
15216;SDS011;7711;46.634;14.318;2023-09-30T12:18:46;10.10;;;8.52;;
15216;SDS011;7711;46.634;14.318;2023-09-30T12:21:14;10.30;;;8.70;;
15216;SDS011;7711;46.634;14.318;2023-09-30T12:23:45;10.88;;;9.77;;
15216;SDS011;7711;46.634;14.318;2023-09-30T12:26:13;12.95;;;9.25;;
15216;SDS011;7711;46.634;14.318;2023-09-30T12:28:45;10.90;;;8.88;;
15216;SDS011;7711;46.634;14.318;2023-09-30T12:31:13;10.48;;;9.02;;
15216;SDS011;7711;46.634;14.318;2023-09-30T12:33:40;12.13;;;9.02;;
15216;SDS011;7711;46.634;14.318;2023-09-30T12:36:07;9.80;;;8.85;;
15216;SDS011;7711;46.634;14.318;2023-09-30T12:38:36;11.23;;;8.52;;
15216;SDS011;7711;46.634;14.318;2023-09-30T12:41:03;11.68;;;8.80;;
15216;SDS011;7711;46.634;14.318;2023-09-30T12:43:30;10.63;;;8.73;;
15216;SDS011;7711;46.634;14.318;2023-09-30T12:45:58;9.38;;;8.20;;
15216;SDS011;7711;46.634;14.318;2023-09-30T12:48:25;10.63;;;8.52;;
15216;SDS011;7711;46.634;14.318;2023-09-30T12:50:52;10.30;;;8.52;;
15216;SDS011;7711;46.634;14.318;2023-09-30T12:53:19;8.90;;;8.10;;
15216;SDS011;7711;46.634;14.318;2023-09-30T12:55:48;9.43;;;8.38;;
15216;SDS011;7711;46.634;14.318;2023-09-30T12:58:15;11.48;;;8.68;;
15216;SDS011;7711;46.634;14.318;2023-09-30T13:00:42;9.60;;;8.38;;
15216;SDS011;7711;46.634;14.318;2023-09-30T13:03:09;10.68;;;8.32;;
15216;SDS011;7711;46.634;14.318;2023-09-30T13:05:38;10.75;;;8.82;;
15216;SDS011;7711;46.634;14.318;2023-09-30T13:08:05;9.27;;;8.18;;
15216;SDS011;7711;46.634;14.318;2023-09-30T13:10:32;9.05;;;8.15;;
15216;SDS011;7711;46.634;14.318;2023-09-30T13:13:00;10.02;;;8.48;;
15216;SDS011;7711;46.634;14.318;2023-09-30T13:15:27;12.07;;;8.85;;
15216;SDS011;7711;46.634;14.318;2023-09-30T13:17:54;10.70;;;9.40;;
15216;SDS011;7711;46.634;14.318;2023-09-30T13:20:22;9.88;;;8.90;;
15216;SDS011;7711;46.634;14.318;2023-09-30T13:22:49;11.02;;;8.38;;
15216;SDS011;7711;46.634;14.318;2023-09-30T13:25:16;9.52;;;8.52;;
15216;SDS011;7711;46.634;14.318;2023-09-30T13:27:44;10.40;;;8.63;;
15216;SDS011;7711;46.634;14.318;2023-09-30T13:30:13;11.23;;;8.60;;
15216;SDS011;7711;46.634;14.318;2023-09-30T13:32:40;9.27;;;8.20;;
15216;SDS011;7711;46.634;14.318;2023-09-30T13:35:07;8.98;;;8.00;;
15216;SDS011;7711;46.634;14.318;2023-09-30T13:37:35;10.13;;;8.40;;
15216;SDS011;7711;46.634;14.318;2023-09-30T13:40:02;10.60;;;8.25;;
15216;SDS011;7711;46.634;14.318;2023-09-30T13:42:33;10.32;;;8.60;;
15216;SDS011;7711;46.634;14.318;2023-09-30T13:45:00;9.52;;;8.52;;
15216;SDS011;7711;46.634;14.318;2023-09-30T13:47:29;8.75;;;7.82;;
15216;SDS011;7711;46.634;14.318;2023-09-30T13:49:57;9.63;;;8.20;;
15216;SDS011;7711;46.634;14.318;2023-09-30T13:52:24;8.43;;;7.63;;
15216;SDS011;7711;46.634;14.318;2023-09-30T13:54:51;10.93;;;7.55;;
15216;SDS011;7711;46.634;14.318;2023-09-30T13:57:19;9.82;;;8.82;;
15216;SDS011;7711;46.634;14.318;2023-09-30T13:59:46;9.77;;;8.85;;
15216;SDS011;7711;46.634;14.318;2023-09-30T14:02:13;9.68;;;8.70;;
15216;SDS011;7711;46.634;14.318;2023-09-30T14:04:42;8.68;;;7.70;;
15216;SDS011;7711;46.634;14.318;2023-09-30T14:07:10;9.15;;;8.23;;
15216;SDS011;7711;46.634;14.318;2023-09-30T14:09:37;9.63;;;8.30;;
15216;SDS011;7711;46.634;14.318;2023-09-30T14:12:04;9.07;;;8.07;;
15216;SDS011;7711;46.634;14.318;2023-09-30T14:14:32;12.82;;;9.00;;
15216;SDS011;7711;46.634;14.318;2023-09-30T14:17:00;11.82;;;8.85;;
15216;SDS011;7711;46.634;14.318;2023-09-30T14:19:35;9.52;;;8.27;;
15216;SDS011;7711;46.634;14.318;2023-09-30T14:22:04;10.25;;;9.15;;
15216;SDS011;7711;46.634;14.318;2023-09-30T14:24:33;13.10;;;9.52;;
15216;SDS011;7711;46.634;14.318;2023-09-30T14:27:00;10.35;;;8.50;;
15216;SDS011;7711;46.634;14.318;2023-09-30T14:29:28;10.13;;;8.52;;
15216;SDS011;7711;46.634;14.318;2023-09-30T14:31:55;12.85;;;8.60;;
15216;SDS011;7711;46.634;14.318;2023-09-30T14:34:23;9.60;;;8.52;;
15216;SDS011;7711;46.634;14.318;2023-09-30T14:36:50;10.50;;;8.65;;
15216;SDS011;7711;46.634;14.318;2023-09-30T14:39:19;9.30;;;8.50;;
15216;SDS011;7711;46.634;14.318;2023-09-30T14:41:47;13.57;;;8.98;;